sensor_id;sensor_type;location;lat;lon;timestamp;P1;durP1;ratioP1;P2;durP2;ratioP2
1402;SDS011;696;48.546;9.896;2023-07-31T00:02:21;1.35;;;1.23;;
1402;SDS011;696;48.546;9.896;2023-07-31T00:04:47;5.68;;;1.40;;
1402;SDS011;696;48.546;9.896;2023-07-31T00:07:12;3.05;;;1.23;;
1402;SDS011;696;48.546;9.896;2023-07-31T00:09:37;3.33;;;1.40;;
1402;SDS011;696;48.546;9.896;2023-07-31T00:12:03;1.70;;;1.30;;
1402;SDS011;696;48.546;9.896;2023-07-31T00:14:28;1.55;;;1.35;;
1402;SDS011;696;48.546;9.896;2023-07-31T00:16:54;2.53;;;1.25;;
1402;SDS011;696;48.546;9.896;2023-07-31T00:19:19;2.45;;;1.38;;
1402;SDS011;696;48.546;9.896;2023-07-31T00:21:44;2.08;;;1.17;;
1402;SDS011;696;48.546;9.896;2023-07-31T00:24:10;4.53;;;1.40;;
1402;SDS011;696;48.546;9.896;2023-07-31T00:26:35;3.22;;;1.38;;
1402;SDS011;696;48.546;9.896;2023-07-31T00:29:00;4.90;;;1.40;;
1402;SDS011;696;48.546;9.896;2023-07-31T00:31:26;2.35;;;1.52;;
1402;SDS011;696;48.546;9.896;2023-07-31T00:33:51;2.13;;;1.13;;
1402;SDS011;696;48.546;9.896;2023-07-31T00:36:17;4.22;;;1.30;;
1402;SDS011;696;48.546;9.896;2023-07-31T00:38:43;1.80;;;0.93;;
1402;SDS011;696;48.546;9.896;2023-07-31T00:41:08;2.70;;;1.73;;
1402;SDS011;696;48.546;9.896;2023-07-31T00:43:34;2.13;;;1.23;;
1402;SDS011;696;48.546;9.896;2023-07-31T00:45:59;3.38;;;1.10;;
1402;SDS011;696;48.546;9.896;2023-07-31T00:48:24;5.05;;;1.67;;
1402;SDS011;696;48.546;9.896;2023-07-31T00:50:50;1.55;;;1.20;;
1402;SDS011;696;48.546;9.896;2023-07-31T00:53:15;2.22;;;1.17;;
1402;SDS011;696;48.546;9.896;2023-07-31T00:55:41;2.55;;;1.27;;
1402;SDS011;696;48.546;9.896;2023-07-31T00:58:07;1.88;;;1.13;;
1402;SDS011;696;48.546;9.896;2023-07-31T01:00:33;1.98;;;1.15;;
1402;SDS011;696;48.546;9.896;2023-07-31T01:02:58;3.58;;;1.48;;
1402;SDS011;696;48.546;9.896;2023-07-31T01:05:25;2.05;;;1.45;;
1402;SDS011;696;48.546;9.896;2023-07-31T01:10:56;1.10;;;1.00;;
1402;SDS011;696;48.546;9.896;2023-07-31T01:13:25;8.77;;;1.38;;
1402;SDS011;696;48.546;9.896;2023-07-31T01:15:51;2.60;;;1.25;;
1402;SDS011;696;48.546;9.896;2023-07-31T01:18:17;3.70;;;1.45;;
1402;SDS011;696;48.546;9.896;2023-07-31T01:20:42;3.53;;;1.60;;
1402;SDS011;696;48.546;9.896;2023-07-31T01:23:14;3.53;;;1.25;;
1402;SDS011;696;48.546;9.896;2023-07-31T01:26:34;4.43;;;1.42;;
1402;SDS011;696;48.546;9.896;2023-07-31T01:31:34;2.53;;;1.33;;
1402;SDS011;696;48.546;9.896;2023-07-31T01:34:00;2.42;;;1.00;;
1402;SDS011;696;48.546;9.896;2023-07-31T01:36:26;1.30;;;1.10;;
1402;SDS011;696;48.546;9.896;2023-07-31T01:38:51;1.33;;;1.20;;
1402;SDS011;696;48.546;9.896;2023-07-31T01:41:17;1.08;;;0.98;;
1402;SDS011;696;48.546;9.896;2023-07-31T01:43:43;2.60;;;1.50;;
1402;SDS011;696;48.546;9.896;2023-07-31T01:46:09;1.90;;;1.40;;
1402;SDS011;696;48.546;9.896;2023-07-31T01:48:34;1.60;;;0.98;;
1402;SDS011;696;48.546;9.896;2023-07-31T01:51:01;11.18;;;1.60;;
1402;SDS011;696;48.546;9.896;2023-07-31T01:53:27;2.00;;;1.70;;
1402;SDS011;696;48.546;9.896;2023-07-31T01:55:53;3.47;;;1.55;;
1402;SDS011;696;48.546;9.896;2023-07-31T01:58:18;3.72;;;1.63;;
1402;SDS011;696;48.546;9.896;2023-07-31T02:00:43;1.52;;;1.30;;
1402;SDS011;696;48.546;9.896;2023-07-31T02:03:09;4.68;;;2.13;;
1402;SDS011;696;48.546;9.896;2023-07-31T02:05:34;3.42;;;1.50;;
1402;SDS011;696;48.546;9.896;2023-07-31T02:08:00;4.35;;;1.90;;
1402;SDS011;696;48.546;9.896;2023-07-31T02:10:25;2.13;;;1.38;;
1402;SDS011;696;48.546;9.896;2023-07-31T02:12:50;1.85;;;1.17;;
1402;SDS011;696;48.546;9.896;2023-07-31T02:15:16;3.90;;;0.95;;
1402;SDS011;696;48.546;9.896;2023-07-31T02:17:41;1.80;;;1.33;;
1402;SDS011;696;48.546;9.896;2023-07-31T02:20:06;3.70;;;1.40;;
1402;SDS011;696;48.546;9.896;2023-07-31T02:22:32;2.65;;;1.55;;
1402;SDS011;696;48.546;9.896;2023-07-31T02:24:57;1.85;;;1.27;;
1402;SDS011;696;48.546;9.896;2023-07-31T02:27:23;2.65;;;1.50;;
1402;SDS011;696;48.546;9.896;2023-07-31T02:29:52;2.97;;;1.65;;
1402;SDS011;696;48.546;9.896;2023-07-31T02:32:17;2.78;;;1.45;;
1402;SDS011;696;48.546;9.896;2023-07-31T02:34:42;3.20;;;1.40;;
1402;SDS011;696;48.546;9.896;2023-07-31T02:37:08;3.90;;;1.23;;
1402;SDS011;696;48.546;9.896;2023-07-31T02:39:33;1.88;;;1.30;;
1402;SDS011;696;48.546;9.896;2023-07-31T02:41:59;2.20;;;1.42;;
1402;SDS011;696;48.546;9.896;2023-07-31T02:44:25;5.95;;;1.65;;
1402;SDS011;696;48.546;9.896;2023-07-31T02:46:50;8.60;;;1.35;;
1402;SDS011;696;48.546;9.896;2023-07-31T02:49:16;1.38;;;1.10;;
1402;SDS011;696;48.546;9.896;2023-07-31T02:51:41;1.63;;;1.17;;
1402;SDS011;696;48.546;9.896;2023-07-31T02:54:06;1.67;;;1.17;;
1402;SDS011;696;48.546;9.896;2023-07-31T02:56:32;2.03;;;1.30;;
1402;SDS011;696;48.546;9.896;2023-07-31T02:58:57;2.65;;;1.40;;
1402;SDS011;696;48.546;9.896;2023-07-31T03:01:22;2.75;;;1.73;;
1402;SDS011;696;48.546;9.896;2023-07-31T03:03:48;2.30;;;1.45;;
1402;SDS011;696;48.546;9.896;2023-07-31T03:06:13;2.55;;;1.50;;
1402;SDS011;696;48.546;9.896;2023-07-31T03:08:38;2.22;;;1.30;;
1402;SDS011;696;48.546;9.896;2023-07-31T03:11:03;2.50;;;1.13;;
1402;SDS011;696;48.546;9.896;2023-07-31T03:13:29;5.68;;;1.25;;
1402;SDS011;696;48.546;9.896;2023-07-31T03:15:54;1.83;;;1.20;;
1402;SDS011;696;48.546;9.896;2023-07-31T03:18:19;1.33;;;1.13;;
1402;SDS011;696;48.546;9.896;2023-07-31T03:20:45;5.20;;;1.45;;
1402;SDS011;696;48.546;9.896;2023-07-31T03:23:10;3.70;;;1.50;;
1402;SDS011;696;48.546;9.896;2023-07-31T03:25:36;6.55;;;1.70;;
1402;SDS011;696;48.546;9.896;2023-07-31T03:28:02;2.05;;;1.52;;
1402;SDS011;696;48.546;9.896;2023-07-31T03:30:27;3.25;;;1.52;;
1402;SDS011;696;48.546;9.896;2023-07-31T03:32:52;5.60;;;2.22;;
1402;SDS011;696;48.546;9.896;2023-07-31T03:35:18;2.95;;;1.63;;
1402;SDS011;696;48.546;9.896;2023-07-31T03:37:43;3.95;;;2.28;;
1402;SDS011;696;48.546;9.896;2023-07-31T03:40:08;4.20;;;2.10;;
1402;SDS011;696;48.546;9.896;2023-07-31T03:42:34;4.15;;;1.90;;
1402;SDS011;696;48.546;9.896;2023-07-31T03:45:00;3.17;;;1.98;;
1402;SDS011;696;48.546;9.896;2023-07-31T03:47:25;4.32;;;2.13;;
1402;SDS011;696;48.546;9.896;2023-07-31T03:49:51;3.55;;;1.83;;
1402;SDS011;696;48.546;9.896;2023-07-31T03:52:16;2.65;;;2.15;;
1402;SDS011;696;48.546;9.896;2023-07-31T03:54:41;3.00;;;1.88;;
1402;SDS011;696;48.546;9.896;2023-07-31T03:57:09;4.22;;;1.92;;
1402;SDS011;696;48.546;9.896;2023-07-31T03:59:35;3.05;;;1.70;;
1402;SDS011;696;48.546;9.896;2023-07-31T04:02:00;2.40;;;1.60;;
1402;SDS011;696;48.546;9.896;2023-07-31T04:04:25;3.72;;;1.90;;
1402;SDS011;696;48.546;9.896;2023-07-31T04:06:51;2.83;;;1.73;;
1402;SDS011;696;48.546;9.896;2023-07-31T04:09:16;3.78;;;1.90;;
1402;SDS011;696;48.546;9.896;2023-07-31T04:11:41;4.15;;;1.80;;
1402;SDS011;696;48.546;9.896;2023-07-31T04:14:07;6.68;;;2.25;;
1402;SDS011;696;48.546;9.896;2023-07-31T04:16:32;7.60;;;2.53;;
1402;SDS011;696;48.546;9.896;2023-07-31T04:18:57;5.53;;;2.30;;
1402;SDS011;696;48.546;9.896;2023-07-31T04:21:23;4.38;;;1.95;;
1402;SDS011;696;48.546;9.896;2023-07-31T04:23:48;2.58;;;1.58;;
1402;SDS011;696;48.546;9.896;2023-07-31T04:26:13;4.78;;;1.73;;
1402;SDS011;696;48.546;9.896;2023-07-31T04:28:39;4.03;;;1.80;;
1402;SDS011;696;48.546;9.896;2023-07-31T04:31:04;3.83;;;2.17;;
1402;SDS011;696;48.546;9.896;2023-07-31T04:33:29;13.23;;;2.22;;
1402;SDS011;696;48.546;9.896;2023-07-31T04:35:55;4.97;;;1.63;;
1402;SDS011;696;48.546;9.896;2023-07-31T04:38:20;3.30;;;1.80;;
1402;SDS011;696;48.546;9.896;2023-07-31T04:40:46;3.47;;;1.75;;
1402;SDS011;696;48.546;9.896;2023-07-31T04:43:12;3.65;;;1.98;;
1402;SDS011;696;48.546;9.896;2023-07-31T04:45:37;2.80;;;1.65;;
1402;SDS011;696;48.546;9.896;2023-07-31T04:48:03;5.05;;;2.03;;
1402;SDS011;696;48.546;9.896;2023-07-31T04:50:28;6.05;;;1.88;;
1402;SDS011;696;48.546;9.896;2023-07-31T04:52:55;3.13;;;1.73;;
1402;SDS011;696;48.546;9.896;2023-07-31T04:55:20;3.72;;;2.17;;
1402;SDS011;696;48.546;9.896;2023-07-31T04:57:45;5.10;;;1.98;;
1402;SDS011;696;48.546;9.896;2023-07-31T05:00:11;5.50;;;2.55;;
1402;SDS011;696;48.546;9.896;2023-07-31T05:02:36;3.53;;;1.88;;
1402;SDS011;696;48.546;9.896;2023-07-31T05:05:02;4.05;;;2.60;;
1402;SDS011;696;48.546;9.896;2023-07-31T05:07:27;8.85;;;5.25;;
1402;SDS011;696;48.546;9.896;2023-07-31T05:09:52;7.57;;;3.90;;
1402;SDS011;696;48.546;9.896;2023-07-31T05:12:18;4.75;;;3.60;;
1402;SDS011;696;48.546;9.896;2023-07-31T05:14:43;6.03;;;3.30;;
1402;SDS011;696;48.546;9.896;2023-07-31T05:17:08;5.45;;;3.85;;
1402;SDS011;696;48.546;9.896;2023-07-31T05:19:34;7.25;;;3.72;;
1402;SDS011;696;48.546;9.896;2023-07-31T05:22:00;10.05;;;4.63;;
1402;SDS011;696;48.546;9.896;2023-07-31T05:24:25;6.15;;;3.60;;
1402;SDS011;696;48.546;9.896;2023-07-31T05:26:50;5.65;;;3.10;;
1402;SDS011;696;48.546;9.896;2023-07-31T05:29:16;4.35;;;2.78;;
1402;SDS011;696;48.546;9.896;2023-07-31T05:31:41;4.60;;;2.85;;
1402;SDS011;696;48.546;9.896;2023-07-31T05:34:07;4.82;;;2.22;;
1402;SDS011;696;48.546;9.896;2023-07-31T05:36:32;2.78;;;1.73;;
1402;SDS011;696;48.546;9.896;2023-07-31T05:38:57;6.70;;;1.75;;
1402;SDS011;696;48.546;9.896;2023-07-31T05:41:22;7.43;;;2.42;;
1402;SDS011;696;48.546;9.896;2023-07-31T05:43:48;3.70;;;2.30;;
1402;SDS011;696;48.546;9.896;2023-07-31T05:46:13;2.70;;;1.90;;
1402;SDS011;696;48.546;9.896;2023-07-31T05:48:39;4.03;;;2.00;;
1402;SDS011;696;48.546;9.896;2023-07-31T05:51:04;6.45;;;2.40;;
1402;SDS011;696;48.546;9.896;2023-07-31T05:53:29;4.95;;;2.40;;
1402;SDS011;696;48.546;9.896;2023-07-31T05:55:55;6.57;;;3.03;;
1402;SDS011;696;48.546;9.896;2023-07-31T05:58:21;5.15;;;2.63;;
1402;SDS011;696;48.546;9.896;2023-07-31T06:00:46;3.05;;;2.25;;
1402;SDS011;696;48.546;9.896;2023-07-31T06:03:12;3.67;;;2.42;;
1402;SDS011;696;48.546;9.896;2023-07-31T06:05:37;2.53;;;2.00;;
1402;SDS011;696;48.546;9.896;2023-07-31T06:08:02;3.60;;;2.13;;
1402;SDS011;696;48.546;9.896;2023-07-31T06:10:28;4.35;;;2.20;;
1402;SDS011;696;48.546;9.896;2023-07-31T06:12:53;8.88;;;2.08;;
1402;SDS011;696;48.546;9.896;2023-07-31T06:15:19;2.92;;;1.98;;
1402;SDS011;696;48.546;9.896;2023-07-31T06:17:44;3.72;;;2.40;;
1402;SDS011;696;48.546;9.896;2023-07-31T06:20:09;3.60;;;2.35;;
1402;SDS011;696;48.546;9.896;2023-07-31T06:22:35;4.07;;;2.20;;
1402;SDS011;696;48.546;9.896;2023-07-31T06:25:00;3.80;;;2.33;;
1402;SDS011;696;48.546;9.896;2023-07-31T06:27:26;4.05;;;2.03;;
1402;SDS011;696;48.546;9.896;2023-07-31T06:29:51;8.10;;;3.10;;
1402;SDS011;696;48.546;9.896;2023-07-31T06:32:16;8.38;;;3.72;;
1402;SDS011;696;48.546;9.896;2023-07-31T06:34:42;4.80;;;2.38;;
1402;SDS011;696;48.546;9.896;2023-07-31T06:37:07;4.75;;;2.30;;
1402;SDS011;696;48.546;9.896;2023-07-31T06:39:32;4.18;;;2.22;;
1402;SDS011;696;48.546;9.896;2023-07-31T06:41:58;3.55;;;1.60;;
1402;SDS011;696;48.546;9.896;2023-07-31T06:44:23;3.65;;;1.52;;
1402;SDS011;696;48.546;9.896;2023-07-31T06:46:48;5.03;;;1.50;;
1402;SDS011;696;48.546;9.896;2023-07-31T06:49:14;1.48;;;1.30;;
1402;SDS011;696;48.546;9.896;2023-07-31T06:51:42;3.95;;;1.50;;
1402;SDS011;696;48.546;9.896;2023-07-31T06:54:08;2.53;;;1.45;;
1402;SDS011;696;48.546;9.896;2023-07-31T06:56:34;2.60;;;1.38;;
1402;SDS011;696;48.546;9.896;2023-07-31T06:58:59;5.47;;;1.90;;
1402;SDS011;696;48.546;9.896;2023-07-31T07:01:25;3.17;;;1.52;;
1402;SDS011;696;48.546;9.896;2023-07-31T07:03:50;4.15;;;1.95;;
1402;SDS011;696;48.546;9.896;2023-07-31T07:06:16;4.22;;;1.55;;
1402;SDS011;696;48.546;9.896;2023-07-31T07:08:42;2.85;;;1.10;;
1402;SDS011;696;48.546;9.896;2023-07-31T07:11:08;8.15;;;1.67;;
1402;SDS011;696;48.546;9.896;2023-07-31T07:13:33;2.60;;;1.45;;
1402;SDS011;696;48.546;9.896;2023-07-31T07:15:58;2.17;;;1.48;;
1402;SDS011;696;48.546;9.896;2023-07-31T07:18:24;1.88;;;1.23;;
1402;SDS011;696;48.546;9.896;2023-07-31T07:20:50;2.42;;;1.38;;
1402;SDS011;696;48.546;9.896;2023-07-31T07:23:16;5.28;;;1.38;;
1402;SDS011;696;48.546;9.896;2023-07-31T07:25:42;2.25;;;1.35;;
1402;SDS011;696;48.546;9.896;2023-07-31T07:28:08;2.45;;;1.63;;
1402;SDS011;696;48.546;9.896;2023-07-31T07:30:34;4.50;;;1.40;;
1402;SDS011;696;48.546;9.896;2023-07-31T07:32:59;4.43;;;1.63;;
1402;SDS011;696;48.546;9.896;2023-07-31T07:35:25;2.60;;;1.60;;
1402;SDS011;696;48.546;9.896;2023-07-31T07:37:50;2.42;;;1.30;;
1402;SDS011;696;48.546;9.896;2023-07-31T07:40:16;2.72;;;1.30;;
1402;SDS011;696;48.546;9.896;2023-07-31T07:42:41;4.85;;;1.38;;
1402;SDS011;696;48.546;9.896;2023-07-31T07:45:07;2.08;;;1.27;;
1402;SDS011;696;48.546;9.896;2023-07-31T07:47:32;4.75;;;1.65;;
1402;SDS011;696;48.546;9.896;2023-07-31T07:49:58;3.13;;;1.50;;
1402;SDS011;696;48.546;9.896;2023-07-31T07:52:23;3.13;;;1.35;;
1402;SDS011;696;48.546;9.896;2023-07-31T07:54:48;3.85;;;1.73;;
1402;SDS011;696;48.546;9.896;2023-07-31T07:57:15;7.30;;;1.80;;
1402;SDS011;696;48.546;9.896;2023-07-31T07:59:40;7.05;;;1.90;;
1402;SDS011;696;48.546;9.896;2023-07-31T08:02:06;2.20;;;1.25;;
1402;SDS011;696;48.546;9.896;2023-07-31T08:04:31;5.85;;;1.50;;
1402;SDS011;696;48.546;9.896;2023-07-31T08:06:57;3.20;;;1.40;;
1402;SDS011;696;48.546;9.896;2023-07-31T08:09:22;2.30;;;1.40;;
1402;SDS011;696;48.546;9.896;2023-07-31T08:11:47;3.45;;;1.70;;
1402;SDS011;696;48.546;9.896;2023-07-31T08:14:13;2.92;;;1.35;;
1402;SDS011;696;48.546;9.896;2023-07-31T08:16:38;4.65;;;1.60;;
1402;SDS011;696;48.546;9.896;2023-07-31T08:19:04;2.72;;;1.40;;
1402;SDS011;696;48.546;9.896;2023-07-31T08:21:29;2.55;;;1.50;;
1402;SDS011;696;48.546;9.896;2023-07-31T08:23:54;2.40;;;1.30;;
1402;SDS011;696;48.546;9.896;2023-07-31T08:26:20;3.03;;;1.33;;
1402;SDS011;696;48.546;9.896;2023-07-31T08:28:46;2.80;;;1.50;;
1402;SDS011;696;48.546;9.896;2023-07-31T08:31:11;3.28;;;1.38;;
1402;SDS011;696;48.546;9.896;2023-07-31T08:33:37;6.13;;;1.88;;
1402;SDS011;696;48.546;9.896;2023-07-31T08:36:03;4.60;;;1.67;;
1402;SDS011;696;48.546;9.896;2023-07-31T08:38:28;7.15;;;1.63;;
1402;SDS011;696;48.546;9.896;2023-07-31T08:40:56;5.28;;;2.03;;
1402;SDS011;696;48.546;9.896;2023-07-31T08:43:22;3.92;;;1.83;;
1402;SDS011;696;48.546;9.896;2023-07-31T08:45:47;3.15;;;1.35;;
1402;SDS011;696;48.546;9.896;2023-07-31T08:48:15;6.22;;;1.83;;
1402;SDS011;696;48.546;9.896;2023-07-31T08:50:40;7.38;;;1.88;;
1402;SDS011;696;48.546;9.896;2023-07-31T08:53:07;6.00;;;1.92;;
1402;SDS011;696;48.546;9.896;2023-07-31T08:55:32;2.50;;;1.70;;
1402;SDS011;696;48.546;9.896;2023-07-31T08:57:57;5.93;;;2.13;;
1402;SDS011;696;48.546;9.896;2023-07-31T09:00:23;6.40;;;1.85;;
1402;SDS011;696;48.546;9.896;2023-07-31T09:03:01;4.30;;;2.00;;
1402;SDS011;696;48.546;9.896;2023-07-31T09:05:28;2.33;;;1.35;;
1402;SDS011;696;48.546;9.896;2023-07-31T09:07:55;4.45;;;1.83;;
1402;SDS011;696;48.546;9.896;2023-07-31T09:10:21;9.30;;;2.10;;
1402;SDS011;696;48.546;9.896;2023-07-31T09:12:46;5.18;;;1.98;;
1402;SDS011;696;48.546;9.896;2023-07-31T09:15:12;11.80;;;1.45;;
1402;SDS011;696;48.546;9.896;2023-07-31T09:17:37;3.17;;;1.45;;
1402;SDS011;696;48.546;9.896;2023-07-31T09:20:21;10.40;;;1.92;;
1402;SDS011;696;48.546;9.896;2023-07-31T09:25:16;3.13;;;1.55;;
1402;SDS011;696;48.546;9.896;2023-07-31T09:28:01;4.20;;;1.48;;
1402;SDS011;696;48.546;9.896;2023-07-31T09:30:28;2.17;;;1.30;;
1402;SDS011;696;48.546;9.896;2023-07-31T09:33:02;4.85;;;1.90;;
1402;SDS011;696;48.546;9.896;2023-07-31T09:35:32;6.18;;;1.90;;
1402;SDS011;696;48.546;9.896;2023-07-31T09:38:00;2.92;;;1.60;;
1402;SDS011;696;48.546;9.896;2023-07-31T09:40:28;3.38;;;1.65;;
1402;SDS011;696;48.546;9.896;2023-07-31T09:42:58;3.13;;;1.70;;
1402;SDS011;696;48.546;9.896;2023-07-31T09:45:28;2.08;;;1.40;;
1402;SDS011;696;48.546;9.896;2023-07-31T09:47:54;3.83;;;1.73;;
1402;SDS011;696;48.546;9.896;2023-07-31T09:50:21;1.77;;;1.15;;
1402;SDS011;696;48.546;9.896;2023-07-31T09:52:47;3.72;;;2.10;;
1402;SDS011;696;48.546;9.896;2023-07-31T09:55:12;1.77;;;1.35;;
1402;SDS011;696;48.546;9.896;2023-07-31T09:57:42;4.05;;;1.70;;
1402;SDS011;696;48.546;9.896;2023-07-31T10:00:09;2.53;;;1.50;;
1402;SDS011;696;48.546;9.896;2023-07-31T10:02:36;11.73;;;1.80;;
1402;SDS011;696;48.546;9.896;2023-07-31T10:05:03;2.80;;;1.40;;
1402;SDS011;696;48.546;9.896;2023-07-31T10:07:29;5.38;;;2.08;;
1402;SDS011;696;48.546;9.896;2023-07-31T10:09:57;6.22;;;2.03;;
1402;SDS011;696;48.546;9.896;2023-07-31T10:12:23;5.38;;;1.70;;
1402;SDS011;696;48.546;9.896;2023-07-31T10:14:51;2.47;;;1.58;;
1402;SDS011;696;48.546;9.896;2023-07-31T10:17:17;11.63;;;1.67;;
1402;SDS011;696;48.546;9.896;2023-07-31T10:19:43;3.38;;;1.48;;
1402;SDS011;696;48.546;9.896;2023-07-31T10:22:09;4.68;;;1.70;;
1402;SDS011;696;48.546;9.896;2023-07-31T10:24:34;2.63;;;1.65;;
1402;SDS011;696;48.546;9.896;2023-07-31T10:27:01;4.32;;;1.75;;
1402;SDS011;696;48.546;9.896;2023-07-31T10:29:27;3.10;;;1.42;;
1402;SDS011;696;48.546;9.896;2023-07-31T10:31:54;1.73;;;1.50;;
1402;SDS011;696;48.546;9.896;2023-07-31T10:34:21;3.20;;;1.55;;
1402;SDS011;696;48.546;9.896;2023-07-31T10:36:46;8.13;;;1.80;;
1402;SDS011;696;48.546;9.896;2023-07-31T10:39:33;3.58;;;1.60;;
1402;SDS011;696;48.546;9.896;2023-07-31T10:42:13;2.50;;;1.60;;
1402;SDS011;696;48.546;9.896;2023-07-31T10:44:43;3.03;;;1.60;;
1402;SDS011;696;48.546;9.896;2023-07-31T10:47:09;3.03;;;1.42;;
1402;SDS011;696;48.546;9.896;2023-07-31T10:49:34;2.92;;;1.40;;
1402;SDS011;696;48.546;9.896;2023-07-31T10:52:02;4.50;;;1.65;;
1402;SDS011;696;48.546;9.896;2023-07-31T10:54:28;2.35;;;1.50;;
1402;SDS011;696;48.546;9.896;2023-07-31T10:56:53;2.78;;;1.38;;
1402;SDS011;696;48.546;9.896;2023-07-31T10:59:19;4.15;;;1.60;;
1402;SDS011;696;48.546;9.896;2023-07-31T11:01:52;2.75;;;1.15;;
1402;SDS011;696;48.546;9.896;2023-07-31T11:04:25;1.88;;;1.30;;
1402;SDS011;696;48.546;9.896;2023-07-31T11:06:58;2.45;;;1.60;;
1402;SDS011;696;48.546;9.896;2023-07-31T11:09:24;6.97;;;1.52;;
1402;SDS011;696;48.546;9.896;2023-07-31T11:11:53;4.15;;;1.98;;
1402;SDS011;696;48.546;9.896;2023-07-31T11:14:19;2.30;;;1.40;;
1402;SDS011;696;48.546;9.896;2023-07-31T11:16:45;7.35;;;1.30;;
1402;SDS011;696;48.546;9.896;2023-07-31T11:19:10;8.00;;;2.13;;
1402;SDS011;696;48.546;9.896;2023-07-31T11:21:36;6.63;;;1.70;;
1402;SDS011;696;48.546;9.896;2023-07-31T11:24:01;2.13;;;1.20;;
1402;SDS011;696;48.546;9.896;2023-07-31T11:26:27;2.72;;;1.33;;
1402;SDS011;696;48.546;9.896;2023-07-31T11:28:52;4.53;;;1.48;;
1402;SDS011;696;48.546;9.896;2023-07-31T11:31:18;3.58;;;1.58;;
1402;SDS011;696;48.546;9.896;2023-07-31T11:33:44;2.45;;;1.40;;
1402;SDS011;696;48.546;9.896;2023-07-31T11:36:16;4.13;;;1.33;;
1402;SDS011;696;48.546;9.896;2023-07-31T11:38:42;2.72;;;1.60;;
1402;SDS011;696;48.546;9.896;2023-07-31T11:41:08;3.58;;;1.60;;
1402;SDS011;696;48.546;9.896;2023-07-31T11:43:33;8.48;;;2.15;;
1402;SDS011;696;48.546;9.896;2023-07-31T11:46:01;7.07;;;2.03;;
1402;SDS011;696;48.546;9.896;2023-07-31T11:48:32;3.13;;;1.60;;
1402;SDS011;696;48.546;9.896;2023-07-31T11:51:03;2.85;;;1.65;;
1402;SDS011;696;48.546;9.896;2023-07-31T11:56:00;4.68;;;1.73;;
1402;SDS011;696;48.546;9.896;2023-07-31T11:58:26;5.03;;;2.00;;
1402;SDS011;696;48.546;9.896;2023-07-31T12:00:52;2.58;;;1.90;;
1402;SDS011;696;48.546;9.896;2023-07-31T12:03:18;4.10;;;1.73;;
1402;SDS011;696;48.546;9.896;2023-07-31T12:05:44;5.07;;;1.98;;
1402;SDS011;696;48.546;9.896;2023-07-31T12:08:10;4.60;;;2.17;;
1402;SDS011;696;48.546;9.896;2023-07-31T12:10:40;5.18;;;1.80;;
1402;SDS011;696;48.546;9.896;2023-07-31T12:13:10;3.35;;;2.10;;
1402;SDS011;696;48.546;9.896;2023-07-31T12:15:40;7.32;;;1.92;;
1402;SDS011;696;48.546;9.896;2023-07-31T12:18:08;3.78;;;2.03;;
1402;SDS011;696;48.546;9.896;2023-07-31T12:20:57;7.03;;;1.85;;
1402;SDS011;696;48.546;9.896;2023-07-31T12:23:24;9.43;;;2.08;;
1402;SDS011;696;48.546;9.896;2023-07-31T12:26:04;7.00;;;2.05;;
1402;SDS011;696;48.546;9.896;2023-07-31T12:28:35;3.75;;;1.98;;
1402;SDS011;696;48.546;9.896;2023-07-31T12:31:02;2.80;;;1.35;;
1402;SDS011;696;48.546;9.896;2023-07-31T12:33:32;2.05;;;1.50;;
1402;SDS011;696;48.546;9.896;2023-07-31T12:36:00;3.17;;;1.90;;
1402;SDS011;696;48.546;9.896;2023-07-31T12:38:27;1.98;;;1.67;;
1402;SDS011;696;48.546;9.896;2023-07-31T12:40:52;3.38;;;2.50;;
1402;SDS011;696;48.546;9.896;2023-07-31T12:43:17;3.45;;;2.03;;
1402;SDS011;696;48.546;9.896;2023-07-31T12:45:43;4.20;;;2.20;;
1402;SDS011;696;48.546;9.896;2023-07-31T12:48:08;9.45;;;2.22;;
1402;SDS011;696;48.546;9.896;2023-07-31T12:50:33;6.93;;;1.70;;
1402;SDS011;696;48.546;9.896;2023-07-31T12:53:01;3.42;;;1.98;;
1402;SDS011;696;48.546;9.896;2023-07-31T12:55:28;9.23;;;2.45;;
1402;SDS011;696;48.546;9.896;2023-07-31T12:57:53;2.65;;;1.88;;
1402;SDS011;696;48.546;9.896;2023-07-31T13:00:19;5.13;;;2.13;;
1402;SDS011;696;48.546;9.896;2023-07-31T13:02:44;4.97;;;1.75;;
1402;SDS011;696;48.546;9.896;2023-07-31T13:05:10;2.67;;;1.67;;
1402;SDS011;696;48.546;9.896;2023-07-31T13:07:35;7.20;;;2.00;;
1402;SDS011;696;48.546;9.896;2023-07-31T13:10:01;5.88;;;2.17;;
1402;SDS011;696;48.546;9.896;2023-07-31T13:12:26;2.72;;;1.50;;
1402;SDS011;696;48.546;9.896;2023-07-31T13:14:51;5.43;;;2.17;;
1402;SDS011;696;48.546;9.896;2023-07-31T13:17:18;3.85;;;1.73;;
1402;SDS011;696;48.546;9.896;2023-07-31T13:19:44;2.85;;;1.83;;
1402;SDS011;696;48.546;9.896;2023-07-31T13:22:09;3.88;;;2.10;;
1402;SDS011;696;48.546;9.896;2023-07-31T13:24:35;4.00;;;1.65;;
1402;SDS011;696;48.546;9.896;2023-07-31T13:27:00;4.53;;;2.05;;
1402;SDS011;696;48.546;9.896;2023-07-31T13:29:25;4.93;;;2.28;;
1402;SDS011;696;48.546;9.896;2023-07-31T13:31:51;5.45;;;1.98;;
1402;SDS011;696;48.546;9.896;2023-07-31T13:34:17;3.00;;;1.73;;
1402;SDS011;696;48.546;9.896;2023-07-31T13:36:42;4.22;;;2.30;;
1402;SDS011;696;48.546;9.896;2023-07-31T13:39:08;2.70;;;1.80;;
1402;SDS011;696;48.546;9.896;2023-07-31T13:41:33;6.97;;;2.10;;
1402;SDS011;696;48.546;9.896;2023-07-31T13:43:58;5.20;;;1.55;;
1402;SDS011;696;48.546;9.896;2023-07-31T13:46:24;6.55;;;2.10;;
1402;SDS011;696;48.546;9.896;2023-07-31T13:48:50;7.32;;;1.65;;
1402;SDS011;696;48.546;9.896;2023-07-31T13:51:16;2.90;;;1.63;;
1402;SDS011;696;48.546;9.896;2023-07-31T13:53:41;5.10;;;1.83;;
1402;SDS011;696;48.546;9.896;2023-07-31T13:56:06;3.63;;;1.77;;
1402;SDS011;696;48.546;9.896;2023-07-31T13:58:32;2.47;;;1.88;;
1402;SDS011;696;48.546;9.896;2023-07-31T14:00:58;2.53;;;1.70;;
1402;SDS011;696;48.546;9.896;2023-07-31T14:03:23;3.17;;;1.70;;
1402;SDS011;696;48.546;9.896;2023-07-31T14:05:49;3.50;;;2.22;;
1402;SDS011;696;48.546;9.896;2023-07-31T14:08:14;4.68;;;1.70;;
1402;SDS011;696;48.546;9.896;2023-07-31T14:10:39;4.75;;;1.80;;
1402;SDS011;696;48.546;9.896;2023-07-31T14:13:05;3.03;;;1.60;;
1402;SDS011;696;48.546;9.896;2023-07-31T14:15:30;2.03;;;1.40;;
1402;SDS011;696;48.546;9.896;2023-07-31T14:17:56;3.67;;;2.00;;
1402;SDS011;696;48.546;9.896;2023-07-31T14:20:22;4.82;;;1.80;;
1402;SDS011;696;48.546;9.896;2023-07-31T14:22:47;6.25;;;1.80;;
1402;SDS011;696;48.546;9.896;2023-07-31T14:25:12;2.85;;;1.55;;
1402;SDS011;696;48.546;9.896;2023-07-31T14:27:38;3.83;;;2.17;;
1402;SDS011;696;48.546;9.896;2023-07-31T14:30:03;5.03;;;2.00;;
1402;SDS011;696;48.546;9.896;2023-07-31T14:32:29;2.10;;;1.52;;
1402;SDS011;696;48.546;9.896;2023-07-31T14:34:55;9.00;;;2.25;;
1402;SDS011;696;48.546;9.896;2023-07-31T14:37:20;3.10;;;1.83;;
1402;SDS011;696;48.546;9.896;2023-07-31T14:39:45;2.83;;;1.60;;
1402;SDS011;696;48.546;9.896;2023-07-31T14:42:11;3.25;;;2.00;;
1402;SDS011;696;48.546;9.896;2023-07-31T14:44:36;2.40;;;1.95;;
1402;SDS011;696;48.546;9.896;2023-07-31T14:47:01;5.05;;;2.22;;
1402;SDS011;696;48.546;9.896;2023-07-31T14:49:27;4.60;;;1.98;;
1402;SDS011;696;48.546;9.896;2023-07-31T14:51:53;3.67;;;1.88;;
1402;SDS011;696;48.546;9.896;2023-07-31T14:54:18;4.70;;;2.30;;
1402;SDS011;696;48.546;9.896;2023-07-31T14:56:44;3.15;;;1.98;;
1402;SDS011;696;48.546;9.896;2023-07-31T14:59:09;6.47;;;1.73;;
1402;SDS011;696;48.546;9.896;2023-07-31T15:01:35;4.72;;;1.88;;
1402;SDS011;696;48.546;9.896;2023-07-31T15:04:00;6.68;;;1.63;;
1402;SDS011;696;48.546;9.896;2023-07-31T15:06:25;4.97;;;2.67;;
1402;SDS011;696;48.546;9.896;2023-07-31T15:08:51;5.28;;;2.15;;
1402;SDS011;696;48.546;9.896;2023-07-31T15:11:16;4.10;;;1.75;;
1402;SDS011;696;48.546;9.896;2023-07-31T15:13:43;5.50;;;2.40;;
1402;SDS011;696;48.546;9.896;2023-07-31T15:16:08;5.90;;;2.35;;
1402;SDS011;696;48.546;9.896;2023-07-31T15:18:34;4.30;;;2.05;;
1402;SDS011;696;48.546;9.896;2023-07-31T15:20:59;2.80;;;2.03;;
1402;SDS011;696;48.546;9.896;2023-07-31T15:23:24;3.05;;;2.10;;
1402;SDS011;696;48.546;9.896;2023-07-31T15:25:51;3.83;;;1.85;;
1402;SDS011;696;48.546;9.896;2023-07-31T15:28:16;4.72;;;2.17;;
1402;SDS011;696;48.546;9.896;2023-07-31T15:30:42;5.22;;;2.35;;
1402;SDS011;696;48.546;9.896;2023-07-31T15:33:07;5.07;;;2.45;;
1402;SDS011;696;48.546;9.896;2023-07-31T15:35:33;5.05;;;2.20;;